Accueil
METAR-TAF:

METAR-TAF

Aéroports :

Aéroport de Francfort-Hahn

Hahn, Allemagne

latitude: 49-57N, longitude: 007-16E, altitude: 491 m

Observation

Le bulletin a été fait il y a 45 minutes, à 07:50 UTC
Vent 7 kt de ouest/nord-ouest, variant entre ouest et nord-ouest
Température 13°C
Humidité 67%
Pression 1023 hPa
Visibilité 10 km ou plus
pas de nuages en-dessous de 1500 mètres et pas de cumulonimbus.

METAR: EDFH 140750Z 29007KT 260V320 CAVOK 13/07 Q1023

Heure: 10:35 (08:35 UTC)

Prévision

Le bulletin a été fait il y a 3 heures et 35 minutes, à 05:00 UTC
Prévision valable du 14 à 06 UTC au 15 à 06 UTC
Vent 9 kt de ouest
Visibilité 10 km ou plus
Nuages épars à une hauteur de 3500 ft
Evoluant progressivement
du 14 à 18 UTC au 14 à 21 UTC
Vent 4 kt de ouest/nord-ouest

TAF: EDFH 140500Z 1406/1506 26009KT 9999 SCT035 BECMG 1418/1421 30004KT

Observations et prévisions météorologiques de plus de 4000 aéroports (messages METAR et TAF).

Les stations disponibles sont représentées par des disques jaunes et rouges sur la carte.

Passer la souris dessus pour voir le nom de la station.

Cliquer dessus pour voir les observations et prévisions météorologiques.

Pour changer de carte: cliquez sur les boutons verts avec une croix noire pour zoomer, sur le bouton vert avec un tiret pour effectuer un zoom arrière, ou sur les flèches vertes pour les cartes adjacentes.


METAR-TAF: